sensor_id;sensor_type;location;lat;lon;timestamp;P1;durP1;ratioP1;P2;durP2;ratioP2
21927;SDS011;11128;51.096;17.190;2022-10-16T00:01:26;7.15;;;4.45;;
21927;SDS011;11128;51.096;17.190;2022-10-16T00:06:30;6.57;;;4.43;;
21927;SDS011;11128;51.096;17.190;2022-10-16T00:11:34;6.18;;;4.55;;
21927;SDS011;11128;51.096;17.190;2022-10-16T00:16:37;5.75;;;3.97;;
21927;SDS011;11128;51.096;17.190;2022-10-16T00:21:39;7.68;;;4.82;;
21927;SDS011;11128;51.096;17.190;2022-10-16T00:26:41;7.05;;;4.25;;
21927;SDS011;11128;51.096;17.190;2022-10-16T00:31:43;7.07;;;4.38;;
21927;SDS011;11128;51.096;17.190;2022-10-16T00:36:44;6.65;;;4.07;;
21927;SDS011;11128;51.096;17.190;2022-10-16T00:41:46;6.95;;;4.65;;
21927;SDS011;11128;51.096;17.190;2022-10-16T00:46:47;10.05;;;4.13;;
21927;SDS011;11128;51.096;17.190;2022-10-16T00:51:51;8.55;;;4.90;;
21927;SDS011;11128;51.096;17.190;2022-10-16T00:56:54;7.38;;;4.88;;
21927;SDS011;11128;51.096;17.190;2022-10-16T01:02:00;8.65;;;4.97;;
21927;SDS011;11128;51.096;17.190;2022-10-16T01:28:34;7.30;;;4.85;;
21927;SDS011;11128;51.096;17.190;2022-10-16T01:34:05;6.35;;;4.68;;
21927;SDS011;11128;51.096;17.190;2022-10-16T01:39:12;10.07;;;5.65;;
21927;SDS011;11128;51.096;17.190;2022-10-16T01:44:19;6.90;;;4.65;;
21927;SDS011;11128;51.096;17.190;2022-10-16T01:49:25;5.50;;;4.10;;
21927;SDS011;11128;51.096;17.190;2022-10-16T01:54:30;7.28;;;4.75;;
21927;SDS011;11128;51.096;17.190;2022-10-16T01:59:35;8.32;;;4.78;;
21927;SDS011;11128;51.096;17.190;2022-10-16T02:04:45;7.28;;;4.65;;
21927;SDS011;11128;51.096;17.190;2022-10-16T02:09:52;9.55;;;5.10;;
21927;SDS011;11128;51.096;17.190;2022-10-16T02:14:55;6.70;;;4.72;;
21927;SDS011;11128;51.096;17.190;2022-10-16T02:19:56;7.88;;;5.25;;
21927;SDS011;11128;51.096;17.190;2022-10-16T02:30:10;10.10;;;6.10;;
21927;SDS011;11128;51.096;17.190;2022-10-16T02:35:18;8.23;;;5.60;;
21927;SDS011;11128;51.096;17.190;2022-10-16T02:40:21;8.68;;;5.47;;
21927;SDS011;11128;51.096;17.190;2022-10-16T02:45:24;9.52;;;5.50;;
21927;SDS011;11128;51.096;17.190;2022-10-16T02:50:26;9.23;;;5.38;;
21927;SDS011;11128;51.096;17.190;2022-10-16T02:55:28;9.73;;;5.47;;
21927;SDS011;11128;51.096;17.190;2022-10-16T03:00:30;11.45;;;5.72;;
21927;SDS011;11128;51.096;17.190;2022-10-16T03:05:31;10.32;;;5.78;;
21927;SDS011;11128;51.096;17.190;2022-10-16T03:10:33;11.50;;;6.43;;
21927;SDS011;11128;51.096;17.190;2022-10-16T03:15:34;11.50;;;5.95;;
21927;SDS011;11128;51.096;17.190;2022-10-16T03:20:36;9.10;;;5.72;;
21927;SDS011;11128;51.096;17.190;2022-10-16T03:25:38;8.05;;;5.30;;
21927;SDS011;11128;51.096;17.190;2022-10-16T03:30:40;9.65;;;5.97;;
21927;SDS011;11128;51.096;17.190;2022-10-16T03:35:41;10.52;;;6.03;;
21927;SDS011;11128;51.096;17.190;2022-10-16T03:40:43;9.15;;;6.20;;
21927;SDS011;11128;51.096;17.190;2022-10-16T03:45:44;9.75;;;5.65;;
21927;SDS011;11128;51.096;17.190;2022-10-16T03:50:46;8.95;;;5.47;;
21927;SDS011;11128;51.096;17.190;2022-10-16T03:55:49;10.15;;;6.50;;
21927;SDS011;11128;51.096;17.190;2022-10-16T04:00:51;7.78;;;5.15;;
21927;SDS011;11128;51.096;17.190;2022-10-16T04:05:53;10.60;;;5.50;;
21927;SDS011;11128;51.096;17.190;2022-10-16T04:10:54;11.35;;;6.25;;
21927;SDS011;11128;51.096;17.190;2022-10-16T04:15:56;9.65;;;6.05;;
21927;SDS011;11128;51.096;17.190;2022-10-16T04:21:02;8.95;;;6.00;;
21927;SDS011;11128;51.096;17.190;2022-10-16T04:26:05;10.13;;;6.40;;
21927;SDS011;11128;51.096;17.190;2022-10-16T04:31:06;10.30;;;6.15;;
21927;SDS011;11128;51.096;17.190;2022-10-16T04:36:08;10.98;;;6.10;;
21927;SDS011;11128;51.096;17.190;2022-10-16T04:41:10;13.55;;;5.57;;
21927;SDS011;11128;51.096;17.190;2022-10-16T04:46:11;10.32;;;5.97;;
21927;SDS011;11128;51.096;17.190;2022-10-16T04:51:13;8.77;;;5.97;;
21927;SDS011;11128;51.096;17.190;2022-10-16T04:56:15;9.80;;;6.50;;
21927;SDS011;11128;51.096;17.190;2022-10-16T05:01:16;10.00;;;6.50;;
21927;SDS011;11128;51.096;17.190;2022-10-16T05:06:18;12.13;;;7.00;;
21927;SDS011;11128;51.096;17.190;2022-10-16T05:11:19;10.27;;;6.38;;
21927;SDS011;11128;51.096;17.190;2022-10-16T05:16:21;14.45;;;8.98;;
21927;SDS011;11128;51.096;17.190;2022-10-16T05:21:22;10.68;;;6.70;;
21927;SDS011;11128;51.096;17.190;2022-10-16T05:26:24;11.93;;;7.22;;
21927;SDS011;11128;51.096;17.190;2022-10-16T05:31:25;12.02;;;6.72;;
21927;SDS011;11128;51.096;17.190;2022-10-16T05:36:27;11.10;;;6.78;;
21927;SDS011;11128;51.096;17.190;2022-10-16T05:41:28;12.27;;;6.72;;
21927;SDS011;11128;51.096;17.190;2022-10-16T05:46:30;12.70;;;6.47;;
21927;SDS011;11128;51.096;17.190;2022-10-16T05:51:32;12.75;;;7.63;;
21927;SDS011;11128;51.096;17.190;2022-10-16T05:56:33;12.35;;;7.45;;
21927;SDS011;11128;51.096;17.190;2022-10-16T06:01:35;11.77;;;6.53;;
21927;SDS011;11128;51.096;17.190;2022-10-16T06:06:37;9.70;;;6.30;;
21927;SDS011;11128;51.096;17.190;2022-10-16T06:11:38;9.55;;;6.07;;
21927;SDS011;11128;51.096;17.190;2022-10-16T06:16:40;10.38;;;6.63;;
21927;SDS011;11128;51.096;17.190;2022-10-16T06:21:41;10.05;;;6.05;;
21927;SDS011;11128;51.096;17.190;2022-10-16T06:26:43;10.75;;;6.70;;
21927;SDS011;11128;51.096;17.190;2022-10-16T06:31:44;7.82;;;5.63;;
21927;SDS011;11128;51.096;17.190;2022-10-16T06:36:46;8.07;;;5.55;;
21927;SDS011;11128;51.096;17.190;2022-10-16T06:41:47;12.80;;;6.13;;
21927;SDS011;11128;51.096;17.190;2022-10-16T06:46:50;9.75;;;5.95;;
21927;SDS011;11128;51.096;17.190;2022-10-16T06:51:52;9.15;;;6.13;;
21927;SDS011;11128;51.096;17.190;2022-10-16T06:56:53;8.90;;;5.55;;
21927;SDS011;11128;51.096;17.190;2022-10-16T07:01:55;7.22;;;5.05;;
21927;SDS011;11128;51.096;17.190;2022-10-16T07:06:56;7.07;;;4.60;;
21927;SDS011;11128;51.096;17.190;2022-10-16T07:11:58;6.53;;;4.38;;
21927;SDS011;11128;51.096;17.190;2022-10-16T07:16:59;4.75;;;4.10;;
21927;SDS011;11128;51.096;17.190;2022-10-16T07:22:01;7.28;;;4.72;;
21927;SDS011;11128;51.096;17.190;2022-10-16T07:27:02;6.38;;;4.28;;
21927;SDS011;11128;51.096;17.190;2022-10-16T07:32:04;7.30;;;4.10;;
21927;SDS011;11128;51.096;17.190;2022-10-16T07:37:06;4.95;;;3.72;;
21927;SDS011;11128;51.096;17.190;2022-10-16T07:42:07;7.00;;;3.83;;
21927;SDS011;11128;51.096;17.190;2022-10-16T07:47:09;6.03;;;3.88;;
21927;SDS011;11128;51.096;17.190;2022-10-16T07:52:11;6.10;;;3.75;;
21927;SDS011;11128;51.096;17.190;2022-10-16T07:57:12;5.25;;;3.63;;
21927;SDS011;11128;51.096;17.190;2022-10-16T08:02:20;4.97;;;3.60;;
21927;SDS011;11128;51.096;17.190;2022-10-16T08:07:23;4.78;;;3.53;;
21927;SDS011;11128;51.096;17.190;2022-10-16T08:12:25;5.03;;;2.95;;
21927;SDS011;11128;51.096;17.190;2022-10-16T08:17:27;5.82;;;3.38;;
21927;SDS011;11128;51.096;17.190;2022-10-16T08:22:28;4.05;;;3.00;;
21927;SDS011;11128;51.096;17.190;2022-10-16T08:27:31;3.88;;;2.97;;
21927;SDS011;11128;51.096;17.190;2022-10-16T08:32:33;6.00;;;3.15;;
21927;SDS011;11128;51.096;17.190;2022-10-16T08:37:34;6.40;;;4.38;;
21927;SDS011;11128;51.096;17.190;2022-10-16T08:53:21;5.97;;;3.30;;
21927;SDS011;11128;51.096;17.190;2022-10-16T08:58:38;5.50;;;3.28;;
21927;SDS011;11128;51.096;17.190;2022-10-16T09:14:22;5.45;;;3.35;;
21927;SDS011;11128;51.096;17.190;2022-10-16T09:19:44;3.55;;;3.05;;
21927;SDS011;11128;51.096;17.190;2022-10-16T09:24:51;8.63;;;4.38;;
21927;SDS011;11128;51.096;17.190;2022-10-16T09:29:54;5.78;;;3.67;;
21927;SDS011;11128;51.096;17.190;2022-10-16T09:34:56;7.90;;;4.50;;
21927;SDS011;11128;51.096;17.190;2022-10-16T09:39:58;8.60;;;3.58;;
21927;SDS011;11128;51.096;17.190;2022-10-16T09:45:00;7.85;;;5.57;;
21927;SDS011;11128;51.096;17.190;2022-10-16T09:50:15;4.68;;;3.92;;
21927;SDS011;11128;51.096;17.190;2022-10-16T09:55:27;8.27;;;3.70;;
21927;SDS011;11128;51.096;17.190;2022-10-16T10:00:28;5.65;;;3.70;;
21927;SDS011;11128;51.096;17.190;2022-10-16T10:05:31;4.82;;;3.67;;
21927;SDS011;11128;51.096;17.190;2022-10-16T10:10:34;5.32;;;3.40;;
21927;SDS011;11128;51.096;17.190;2022-10-16T10:15:42;4.32;;;3.13;;
21927;SDS011;11128;51.096;17.190;2022-10-16T10:20:44;2.92;;;2.63;;
21927;SDS011;11128;51.096;17.190;2022-10-16T10:31:08;3.40;;;1.88;;
21927;SDS011;11128;51.096;17.190;2022-10-16T10:36:29;2.20;;;1.63;;
21927;SDS011;11128;51.096;17.190;2022-10-16T10:41:44;3.03;;;1.45;;
21927;SDS011;11128;51.096;17.190;2022-10-16T10:57:30;1.70;;;1.50;;
21927;SDS011;11128;51.096;17.190;2022-10-16T11:02:38;1.42;;;1.23;;
21927;SDS011;11128;51.096;17.190;2022-10-16T11:13:06;1.88;;;1.10;;
21927;SDS011;11128;51.096;17.190;2022-10-16T11:23:51;1.42;;;0.82;;
21927;SDS011;11128;51.096;17.190;2022-10-16T11:29:03;1.40;;;1.20;;
21927;SDS011;11128;51.096;17.190;2022-10-16T11:34:55;1.10;;;1.00;;
21927;SDS011;11128;51.096;17.190;2022-10-16T11:39:42;2.08;;;1.48;;
21927;SDS011;11128;51.096;17.190;2022-10-16T11:44:50;2.67;;;2.22;;
21927;SDS011;11128;51.096;17.190;2022-10-16T12:00:41;4.15;;;2.28;;
21927;SDS011;11128;51.096;17.190;2022-10-16T12:16:28;3.88;;;2.55;;
21927;SDS011;11128;51.096;17.190;2022-10-16T12:21:30;3.30;;;2.47;;
21927;SDS011;11128;51.096;17.190;2022-10-16T12:26:33;4.03;;;2.30;;
21927;SDS011;11128;51.096;17.190;2022-10-16T12:31:42;5.80;;;3.10;;
21927;SDS011;11128;51.096;17.190;2022-10-16T12:36:46;6.75;;;3.90;;
21927;SDS011;11128;51.096;17.190;2022-10-16T12:41:59;5.57;;;3.85;;
21927;SDS011;11128;51.096;17.190;2022-10-16T12:47:02;7.82;;;5.07;;
21927;SDS011;11128;51.096;17.190;2022-10-16T12:52:04;6.55;;;4.88;;
21927;SDS011;11128;51.096;17.190;2022-10-16T13:24:46;8.88;;;5.93;;
21927;SDS011;11128;51.096;17.190;2022-10-16T13:29:53;9.18;;;6.32;;
21927;SDS011;11128;51.096;17.190;2022-10-16T13:35:29;7.82;;;5.47;;
21927;SDS011;11128;51.096;17.190;2022-10-16T13:40:33;8.18;;;4.97;;
21927;SDS011;11128;51.096;17.190;2022-10-16T13:45:35;7.97;;;5.22;;
21927;SDS011;11128;51.096;17.190;2022-10-16T13:50:37;8.15;;;5.50;;
21927;SDS011;11128;51.096;17.190;2022-10-16T13:55:39;6.97;;;5.03;;
21927;SDS011;11128;51.096;17.190;2022-10-16T14:00:41;8.00;;;5.20;;
21927;SDS011;11128;51.096;17.190;2022-10-16T14:05:59;5.93;;;4.70;;
21927;SDS011;11128;51.096;17.190;2022-10-16T14:11:03;7.88;;;4.40;;
21927;SDS011;11128;51.096;17.190;2022-10-16T14:16:06;5.78;;;4.15;;
21927;SDS011;11128;51.096;17.190;2022-10-16T14:21:12;8.05;;;4.55;;
21927;SDS011;11128;51.096;17.190;2022-10-16T14:26:19;6.35;;;4.72;;
21927;SDS011;11128;51.096;17.190;2022-10-16T14:31:40;8.00;;;4.72;;
21927;SDS011;11128;51.096;17.190;2022-10-16T14:36:43;6.70;;;4.40;;
21927;SDS011;11128;51.096;17.190;2022-10-16T14:41:46;9.95;;;4.88;;
21927;SDS011;11128;51.096;17.190;2022-10-16T14:46:49;6.75;;;4.53;;
21927;SDS011;11128;51.096;17.190;2022-10-16T14:51:51;8.77;;;4.93;;
21927;SDS011;11128;51.096;17.190;2022-10-16T14:56:57;8.40;;;5.20;;
21927;SDS011;11128;51.096;17.190;2022-10-16T15:01:59;8.75;;;5.45;;
21927;SDS011;11128;51.096;17.190;2022-10-16T15:07:10;9.25;;;5.70;;
21927;SDS011;11128;51.096;17.190;2022-10-16T15:12:12;10.95;;;5.60;;
21927;SDS011;11128;51.096;17.190;2022-10-16T15:17:14;10.73;;;5.85;;
21927;SDS011;11128;51.096;17.190;2022-10-16T15:22:15;10.27;;;7.38;;
21927;SDS011;11128;51.096;17.190;2022-10-16T15:27:17;13.15;;;6.45;;
21927;SDS011;11128;51.096;17.190;2022-10-16T15:32:18;8.70;;;5.80;;
21927;SDS011;11128;51.096;17.190;2022-10-16T15:37:20;7.65;;;5.32;;
21927;SDS011;11128;51.096;17.190;2022-10-16T15:42:21;11.70;;;7.43;;
21927;SDS011;11128;51.096;17.190;2022-10-16T15:47:23;14.50;;;8.52;;
21927;SDS011;11128;51.096;17.190;2022-10-16T15:52:24;13.57;;;8.15;;
21927;SDS011;11128;51.096;17.190;2022-10-16T15:57:27;9.90;;;6.85;;
21927;SDS011;11128;51.096;17.190;2022-10-16T16:02:30;10.30;;;7.57;;
21927;SDS011;11128;51.096;17.190;2022-10-16T16:07:32;11.43;;;7.75;;
21927;SDS011;11128;51.096;17.190;2022-10-16T16:12:35;12.85;;;7.43;;
21927;SDS011;11128;51.096;17.190;2022-10-16T16:17:37;12.88;;;8.02;;
21927;SDS011;11128;51.096;17.190;2022-10-16T16:22:40;13.05;;;8.15;;
21927;SDS011;11128;51.096;17.190;2022-10-16T16:27:42;14.02;;;7.72;;
21927;SDS011;11128;51.096;17.190;2022-10-16T16:32:45;12.40;;;8.13;;
21927;SDS011;11128;51.096;17.190;2022-10-16T16:37:47;14.43;;;8.68;;
21927;SDS011;11128;51.096;17.190;2022-10-16T16:42:49;13.23;;;8.63;;
21927;SDS011;11128;51.096;17.190;2022-10-16T16:47:51;14.75;;;8.90;;
21927;SDS011;11128;51.096;17.190;2022-10-16T16:52:52;14.15;;;7.80;;
21927;SDS011;11128;51.096;17.190;2022-10-16T16:57:54;14.60;;;7.97;;
21927;SDS011;11128;51.096;17.190;2022-10-16T17:02:57;12.70;;;8.40;;
21927;SDS011;11128;51.096;17.190;2022-10-16T17:07:59;17.02;;;9.30;;
21927;SDS011;11128;51.096;17.190;2022-10-16T17:13:01;17.13;;;9.57;;
21927;SDS011;11128;51.096;17.190;2022-10-16T17:18:02;15.98;;;9.35;;
21927;SDS011;11128;51.096;17.190;2022-10-16T17:23:04;13.35;;;9.40;;
21927;SDS011;11128;51.096;17.190;2022-10-16T17:28:06;14.48;;;8.70;;
21927;SDS011;11128;51.096;17.190;2022-10-16T17:33:12;15.63;;;9.23;;
21927;SDS011;11128;51.096;17.190;2022-10-16T17:38:14;16.23;;;9.43;;
21927;SDS011;11128;51.096;17.190;2022-10-16T17:43:16;20.33;;;9.70;;
21927;SDS011;11128;51.096;17.190;2022-10-16T17:48:18;15.63;;;9.82;;
21927;SDS011;11128;51.096;17.190;2022-10-16T17:53:19;17.10;;;10.40;;
21927;SDS011;11128;51.096;17.190;2022-10-16T17:58:21;16.80;;;9.57;;
21927;SDS011;11128;51.096;17.190;2022-10-16T18:03:23;18.33;;;10.95;;
21927;SDS011;11128;51.096;17.190;2022-10-16T18:08:26;17.55;;;10.93;;
21927;SDS011;11128;51.096;17.190;2022-10-16T18:13:28;20.70;;;10.45;;
21927;SDS011;11128;51.096;17.190;2022-10-16T18:18:30;17.65;;;11.45;;
21927;SDS011;11128;51.096;17.190;2022-10-16T18:23:33;19.88;;;11.73;;
21927;SDS011;11128;51.096;17.190;2022-10-16T18:28:36;20.42;;;11.90;;
21927;SDS011;11128;51.096;17.190;2022-10-16T18:33:39;23.10;;;12.93;;
21927;SDS011;11128;51.096;17.190;2022-10-16T18:38:48;25.55;;;13.68;;
21927;SDS011;11128;51.096;17.190;2022-10-16T18:43:49;36.35;;;18.63;;
21927;SDS011;11128;51.096;17.190;2022-10-16T18:48:51;25.85;;;15.10;;
21927;SDS011;11128;51.096;17.190;2022-10-16T18:53:56;22.55;;;13.43;;
21927;SDS011;11128;51.096;17.190;2022-10-16T18:59:03;22.65;;;13.25;;
21927;SDS011;11128;51.096;17.190;2022-10-16T19:04:07;24.25;;;14.02;;
21927;SDS011;11128;51.096;17.190;2022-10-16T19:09:11;24.20;;;13.73;;
21927;SDS011;11128;51.096;17.190;2022-10-16T19:14:15;22.88;;;14.43;;
21927;SDS011;11128;51.096;17.190;2022-10-16T19:19:17;21.65;;;12.70;;
21927;SDS011;11128;51.096;17.190;2022-10-16T19:24:19;23.77;;;14.48;;
21927;SDS011;11128;51.096;17.190;2022-10-16T19:29:21;42.88;;;21.42;;
21927;SDS011;11128;51.096;17.190;2022-10-16T19:34:22;21.45;;;12.80;;
21927;SDS011;11128;51.096;17.190;2022-10-16T19:39:24;22.02;;;12.70;;
21927;SDS011;11128;51.096;17.190;2022-10-16T19:44:26;20.65;;;12.77;;
21927;SDS011;11128;51.096;17.190;2022-10-16T19:49:27;21.98;;;13.70;;
21927;SDS011;11128;51.096;17.190;2022-10-16T19:54:29;22.88;;;13.32;;
21927;SDS011;11128;51.096;17.190;2022-10-16T19:59:30;25.02;;;13.90;;
21927;SDS011;11128;51.096;17.190;2022-10-16T20:04:32;23.33;;;14.10;;
21927;SDS011;11128;51.096;17.190;2022-10-16T20:09:33;25.33;;;14.27;;
21927;SDS011;11128;51.096;17.190;2022-10-16T20:14:35;29.88;;;16.00;;
21927;SDS011;11128;51.096;17.190;2022-10-16T20:19:38;29.45;;;15.40;;
21927;SDS011;11128;51.096;17.190;2022-10-16T20:24:39;28.20;;;15.38;;
21927;SDS011;11128;51.096;17.190;2022-10-16T20:29:41;25.85;;;14.18;;
21927;SDS011;11128;51.096;17.190;2022-10-16T20:34:42;25.10;;;15.18;;
21927;SDS011;11128;51.096;17.190;2022-10-16T20:39:49;28.27;;;15.60;;
21927;SDS011;11128;51.096;17.190;2022-10-16T20:44:50;27.33;;;15.55;;
21927;SDS011;11128;51.096;17.190;2022-10-16T20:49:54;26.73;;;15.63;;
21927;SDS011;11128;51.096;17.190;2022-10-16T20:54:56;28.33;;;14.90;;
21927;SDS011;11128;51.096;17.190;2022-10-16T20:59:57;25.77;;;15.10;;
21927;SDS011;11128;51.096;17.190;2022-10-16T21:04:59;30.63;;;16.75;;
21927;SDS011;11128;51.096;17.190;2022-10-16T21:10:01;28.65;;;15.73;;
21927;SDS011;11128;51.096;17.190;2022-10-16T21:15:04;27.33;;;15.38;;
21927;SDS011;11128;51.096;17.190;2022-10-16T21:20:06;29.00;;;15.63;;
21927;SDS011;11128;51.096;17.190;2022-10-16T21:25:08;26.75;;;15.73;;
21927;SDS011;11128;51.096;17.190;2022-10-16T21:30:10;32.72;;;16.20;;
21927;SDS011;11128;51.096;17.190;2022-10-16T21:35:12;31.45;;;16.02;;
21927;SDS011;11128;51.096;17.190;2022-10-16T21:40:13;27.30;;;15.98;;
21927;SDS011;11128;51.096;17.190;2022-10-16T21:45:15;30.95;;;16.02;;
21927;SDS011;11128;51.096;17.190;2022-10-16T21:50:18;30.10;;;16.15;;
21927;SDS011;11128;51.096;17.190;2022-10-16T21:55:19;33.50;;;17.15;;
21927;SDS011;11128;51.096;17.190;2022-10-16T22:00:21;35.47;;;17.52;;
21927;SDS011;11128;51.096;17.190;2022-10-16T22:05:22;33.67;;;16.60;;
21927;SDS011;11128;51.096;17.190;2022-10-16T22:10:24;35.45;;;17.77;;
21927;SDS011;11128;51.096;17.190;2022-10-16T22:15:25;31.88;;;16.95;;
21927;SDS011;11128;51.096;17.190;2022-10-16T22:20:27;32.30;;;17.08;;
21927;SDS011;11128;51.096;17.190;2022-10-16T22:25:28;29.48;;;15.93;;
21927;SDS011;11128;51.096;17.190;2022-10-16T22:30:30;30.92;;;17.40;;
21927;SDS011;11128;51.096;17.190;2022-10-16T22:35:38;28.73;;;15.15;;
21927;SDS011;11128;51.096;17.190;2022-10-16T22:40:41;28.15;;;15.02;;
21927;SDS011;11128;51.096;17.190;2022-10-16T22:45:44;33.17;;;16.15;;
21927;SDS011;11128;51.096;17.190;2022-10-16T22:50:48;27.80;;;16.02;;
21927;SDS011;11128;51.096;17.190;2022-10-16T22:55:50;27.50;;;15.73;;
21927;SDS011;11128;51.096;17.190;2022-10-16T23:00:52;27.92;;;15.95;;
21927;SDS011;11128;51.096;17.190;2022-10-16T23:05:53;30.35;;;16.52;;
21927;SDS011;11128;51.096;17.190;2022-10-16T23:10:55;28.60;;;15.30;;
21927;SDS011;11128;51.096;17.190;2022-10-16T23:16:01;41.58;;;18.17;;
21927;SDS011;11128;51.096;17.190;2022-10-16T23:21:07;33.42;;;16.55;;
21927;SDS011;11128;51.096;17.190;2022-10-16T23:26:13;32.30;;;17.17;;
21927;SDS011;11128;51.096;17.190;2022-10-16T23:31:17;38.78;;;19.38;;
21927;SDS011;11128;51.096;17.190;2022-10-16T23:36:19;36.83;;;18.65;;
21927;SDS011;11128;51.096;17.190;2022-10-16T23:41:21;30.40;;;17.27;;
21927;SDS011;11128;51.096;17.190;2022-10-16T23:46:23;32.08;;;17.25;;
21927;SDS011;11128;51.096;17.190;2022-10-16T23:51:25;29.85;;;16.10;;
21927;SDS011;11128;51.096;17.190;2022-10-16T23:56:26;32.53;;;16.70;;
